Southern View, Illinois
Current Conditions -  °F | °C
As of 5:52 AM on Saturday 20 Dec 2014 (Local Time) from KSPI Reporting Station
Overcast Overcast  
Wind Chill: 26°   Ceiling: 6500
Heat Index: 32°   Visibility: 8mi
Dew Point: 27°   Wind: 6mph
Humidity: 82%   Direction: 100°E
Pressure: 30.26"   Gusts: NA
Location:  39.7587°N, 89.6325°W
Report Text: KSPI 201152Z 10005KT 8SM OVC065 00/M03 A3026 RMK AO2 SLP254 T00001028 10000 21006 56004
Loading
Personal Weather Stations






























Interactive Weather Map New forecast layout! Learn more

10-Day Weather Forecast

Advertisements
Track Severe Weather on mobile